Time;durP1;ratioP1;P1;durP2;ratioP2;P2;SDS_P1;SDS_P2;PMS_P1;PMS_P2;Temp;Humidity;BMP_temperature;BMP_pressure;BME280_temperature;BME280_humidity;BME280_pressure;Samples;Min_cycle;Max_cycle;Signal;HPM_P1;HPM_P2
2022/06/16 00:01:58;;;;;;;12.35;4.68;;;24.10;54.30;;;;;;5068054;28;20470;-52
2022/06/16 00:04:25;;;;;;;6.28;4.70;;;24.10;54.50;;;;;;5067558;28;20036;-51
2022/06/16 00:06:51;;;;;;;11.40;5.07;;;24.00;54.60;;;;;;5071251;28;20040;-49
2022/06/16 00:09:17;;;;;;;8.73;4.90;;;24.00;54.80;;;;;;5069915;28;20222;-52
2022/06/16 00:11:42;;;;;;;10.55;4.95;;;24.00;54.90;;;;;;5072470;28;20462;-49
2022/06/16 00:14:10;;;;;;;9.13;4.75;;;24.00;55.00;;;;;;5047981;28;20071;-50
2022/06/16 00:16:36;;;;;;;11.43;6.90;;;24.00;55.10;;;;;;5069923;28;20029;-51
2022/06/16 00:19:02;;;;;;;9.00;5.03;;;24.00;55.20;;;;;;5068199;28;20029;-52
2022/06/16 00:21:28;;;;;;;10.32;4.75;;;24.00;55.20;;;;;;5069968;28;20083;-51
2022/06/16 00:23:53;;;;;;;9.38;4.85;;;24.00;55.10;;;;;;5069480;28;20462;-50
2022/06/16 00:26:23;;;;;;;10.52;4.53;;;23.90;55.00;;;;;;5069639;28;20020;-50
2022/06/16 00:28:49;;;;;;;15.23;5.35;;;23.90;55.00;;;;;;5028970;28;20059;-49
2022/06/16 00:31:19;;;;;;;7.35;4.70;;;23.90;55.30;;;;;;5047744;28;20075;-58
2022/06/16 00:33:46;;;;;;;11.02;5.20;;;23.80;55.60;;;;;;5064516;28;20066;-48
2022/06/16 00:36:12;;;;;;;10.45;4.90;;;23.80;55.70;;;;;;5069087;28;20042;-53
2022/06/16 00:38:38;;;;;;;14.10;5.55;;;23.70;55.80;;;;;;5045365;28;20056;-48
2022/06/16 00:41:05;;;;;;;9.77;5.32;;;23.70;56.20;;;;;;5045287;28;20021;-53
2022/06/16 00:43:31;;;;;;;9.27;5.40;;;23.60;56.40;;;;;;5065941;28;20393;-50
2022/06/16 00:46:04;;;;;;;10.13;5.15;;;23.60;56.60;;;;;;5067591;28;20040;-48
2022/06/16 00:48:36;;;;;;;14.15;6.15;;;23.60;56.70;;;;;;5067011;28;20063;-50
2022/06/16 00:51:37;;;;;;;12.65;5.95;;;23.50;57.10;;;;;;5067100;28;20025;-50
2022/06/16 00:54:20;;;;;;;15.07;6.78;;;23.50;57.20;;;;;;5062933;28;20390;-48
2022/06/16 00:56:51;;;;;;;18.17;7.40;;;23.40;57.40;;;;;;5071307;28;20028;-46
2022/06/16 00:59:19;;;;;;;14.88;6.30;;;23.40;57.60;;;;;;5060399;28;20082;-49
2022/06/16 01:01:45;;;;;;;12.02;5.80;;;23.40;57.70;;;;;;5065631;28;20024;-50
2022/06/16 01:06:59;;;;;;;10.75;5.70;;;23.30;57.70;;;;;;5060250;28;20070;-51
2022/06/16 01:09:29;;;;;;;14.00;6.00;;;23.30;58.30;;;;;;5070994;28;20031;-51
2022/06/16 01:15:00;;;;;;;8.05;5.22;;;23.30;57.70;;;;;;5063477;28;20039;-51
2022/06/16 01:17:52;;;;;;;9.68;5.18;;;23.30;57.60;;;;;;5058765;28;20024;-51
2022/06/16 01:20:30;;;;;;;9.40;4.80;;;23.30;57.70;;;;;;5071308;28;20025;-53
2022/06/16 01:23:23;;;;;;;11.93;5.90;;;23.20;58.20;;;;;;5056873;28;20040;-48
2022/06/16 01:26:34;;;;;;;13.13;5.78;;;23.20;58.40;;;;;;5069875;28;20028;-48
2022/06/16 01:28:59;;;;;;;10.30;6.47;;;23.10;58.50;;;;;;4954313;28;20460;-52
2022/06/16 01:31:31;;;;;;;10.38;6.10;;;23.00;58.80;;;;;;5057678;28;20107;-53
2022/06/16 01:34:10;;;;;;;12.30;5.13;;;22.90;59.10;;;;;;5053128;28;20123;-47
2022/06/16 01:36:48;;;;;;;10.55;5.38;;;22.80;59.40;;;;;;5071089;28;20041;-50
2022/06/16 01:39:20;;;;;;;10.25;6.10;;;22.80;59.50;;;;;;5050272;28;20033;-55
2022/06/16 01:41:49;;;;;;;10.65;5.38;;;22.80;59.40;;;;;;5064195;28;20047;-48
2022/06/16 01:44:18;;;;;;;8.13;5.50;;;22.80;59.30;;;;;;5061519;28;20036;-49
2022/06/16 01:46:51;;;;;;;11.45;6.28;;;22.90;59.40;;;;;;5061327;28;20052;-49
2022/06/16 01:49:24;;;;;;;10.23;5.57;;;22.90;59.50;;;;;;5060623;28;20025;-49
2022/06/16 01:52:04;;;;;;;12.20;5.97;;;22.90;59.20;;;;;;5058756;28;20349;-48
2022/06/16 01:54:32;;;;;;;10.63;6.13;;;22.90;59.20;;;;;;5060809;28;20036;-49
2022/06/16 01:57:12;;;;;;;8.68;6.15;;;22.90;59.20;;;;;;5041923;28;20046;-49
2022/06/16 01:59:55;;;;;;;10.25;5.28;;;22.90;59.30;;;;;;5051092;28;20124;-49
2022/06/16 02:02:24;;;;;;;16.25;5.97;;;22.90;59.50;;;;;;5064008;28;20036;-56
2022/06/16 02:04:55;;;;;;;9.10;5.53;;;22.80;59.40;;;;;;5059883;28;20036;-56
2022/06/16 02:07:42;;;;;;;9.02;5.47;;;22.80;59.70;;;;;;5059498;28;20060;-54
2022/06/16 02:10:12;;;;;;;8.93;5.22;;;22.80;59.90;;;;;;5059054;28;20023;-51
2022/06/16 02:12:55;;;;;;;11.35;5.68;;;22.70;59.90;;;;;;5058452;28;20033;-52
2022/06/16 02:16:00;;;;;;;18.95;5.65;;;22.60;60.00;;;;;;5059038;28;20032;-49
2022/06/16 02:18:30;;;;;;;;;;;22.60;60.40;;;;;;5041098;28;20032;-49
2022/06/16 02:21:04;;;;;;;14.93;5.75;;;22.60;60.00;;;;;;5041844;28;19908;-49
2022/06/16 02:23:30;;;;;;;12.80;5.32;;;22.60;60.20;;;;;;5061221;28;20044;-47
2022/06/16 02:25:57;;;;;;;16.65;6.60;;;22.60;60.20;;;;;;5059582;28;20021;-50
2022/06/16 02:28:25;;;;;;;8.30;5.68;;;22.60;60.40;;;;;;5062498;28;20033;-56
2022/06/16 02:31:18;;;;;;;12.05;6.32;;;22.50;61.10;;;;;;5059654;28;20029;-51
2022/06/16 02:33:50;;;;;;;10.30;6.67;;;22.50;60.60;;;;;;5058185;28;20436;-49
2022/06/16 02:36:18;;;;;;;10.00;5.97;;;22.60;60.40;;;;;;5059879;28;20028;-52
2022/06/16 02:39:01;;;;;;;13.07;5.68;;;22.60;60.40;;;;;;5043518;28;20020;-49
2022/06/16 02:41:30;;;;;;;13.82;6.32;;;22.50;60.40;;;;;;5062735;28;20071;-54
2022/06/16 02:43:56;;;;;;;13.73;5.47;;;22.60;60.60;;;;;;5063264;28;20028;-54
2022/06/16 02:46:32;;;;;;;11.77;6.72;;;22.50;60.40;;;;;;5063899;28;20052;-52
2022/06/16 02:48:58;;;;;;;12.40;5.85;;;22.50;60.60;;;;;;5063491;28;20021;-54
2022/06/16 02:52:07;;;;;;;10.02;6.05;;;22.50;61.10;;;;;;5068868;28;20527;-58
2022/06/16 02:55:11;;;;;;;12.07;6.32;;;22.60;60.70;;;;;;5050923;28;20036;-52
2022/06/16 02:57:59;;;;;;;8.60;5.68;;;22.50;60.70;;;;;;5060661;28;20024;-48
2022/06/16 03:00:39;;;;;;;13.23;6.35;;;22.50;60.70;;;;;;5046985;28;20041;-56
2022/06/16 03:03:20;;;;;;;9.95;6.20;;;22.50;60.80;;;;;;5063502;28;20036;-52
2022/06/16 03:05:48;;;;;;;14.65;6.50;;;22.50;60.70;;;;;;5066745;28;20036;-53
2022/06/16 03:08:14;;;;;;;13.85;6.22;;;22.50;60.60;;;;;;5071457;28;20132;-51
2022/06/16 03:10:52;;;;;;;12.68;6.82;;;22.50;60.80;;;;;;5070244;28;20037;-53
2022/06/16 03:13:23;;;;;;;12.32;6.60;;;22.50;60.50;;;;;;5045242;28;20363;-50
2022/06/16 03:15:50;;;;;;;11.10;6.00;;;22.40;60.60;;;;;;5067947;28;20040;-47
2022/06/16 03:18:17;;;;;;;10.43;6.13;;;22.40;60.50;;;;;;5069396;28;20027;-51
2022/06/16 03:20:42;;;;;;;10.85;5.80;;;22.40;60.40;;;;;;5049625;28;20366;-50
2022/06/16 03:23:08;;;;;;;12.00;5.93;;;22.40;60.50;;;;;;5044561;28;20318;-50
2022/06/16 03:25:34;;;;;;;18.67;6.05;;;22.30;60.60;;;;;;5070614;28;20109;-52
2022/06/16 03:28:00;;;;;;;10.40;6.20;;;22.30;60.70;;;;;;5048395;28;20033;-48
2022/06/16 03:30:26;;;;;;;9.70;6.22;;;22.20;60.80;;;;;;5072375;28;20036;-56
2022/06/16 03:32:52;;;;;;;10.68;6.43;;;22.20;61.00;;;;;;5067970;28;20043;-49
2022/06/16 03:35:18;;;;;;;9.57;6.53;;;22.10;61.10;;;;;;5052995;28;20074;-48
2022/06/16 03:37:43;;;;;;;10.55;6.80;;;22.10;61.30;;;;;;5067434;28;20032;-48
2022/06/16 03:40:13;;;;;;;9.85;6.35;;;22.10;61.30;;;;;;5063280;28;20488;-48
2022/06/16 03:42:40;;;;;;;11.77;6.80;;;22.10;61.30;;;;;;5046763;28;20041;-57
2022/06/16 03:45:07;;;;;;;10.10;6.78;;;22.10;61.40;;;;;;5053338;28;20040;-50
2022/06/16 03:47:33;;;;;;;10.90;6.40;;;22.10;61.50;;;;;;5090717;28;20036;-48
2022/06/16 03:49:59;;;;;;;9.95;5.90;;;22.10;61.50;;;;;;5088593;28;20028;-49
2022/06/16 03:52:25;;;;;;;12.65;6.40;;;22.10;61.80;;;;;;5089176;28;20127;-50
2022/06/16 03:54:51;;;;;;;11.32;7.20;;;22.10;61.90;;;;;;5087400;28;20111;-48
2022/06/16 03:57:18;;;;;;;10.90;7.22;;;22.00;62.10;;;;;;5088249;28;20028;-52
2022/06/16 03:59:44;;;;;;;11.40;6.55;;;22.00;62.20;;;;;;5091339;28;20024;-51
2022/06/16 04:02:10;;;;;;;12.95;7.25;;;22.00;62.50;;;;;;5090463;28;20107;-51
2022/06/16 04:04:36;;;;;;;12.07;7.28;;;22.00;62.40;;;;;;5085799;28;20060;-52
2022/06/16 04:07:02;;;;;;;11.07;6.93;;;22.00;62.30;;;;;;5087517;28;20486;-53
2022/06/16 04:09:27;;;;;;;11.23;7.28;;;22.00;62.30;;;;;;5090522;28;20028;-54
2022/06/16 04:11:53;;;;;;;19.15;7.80;;;22.00;62.40;;;;;;5086126;28;20027;-52
2022/06/16 04:14:19;;;;;;;10.82;7.10;;;22.00;62.50;;;;;;5087297;28;20107;-47
2022/06/16 04:16:48;;;;;;;15.60;7.63;;;22.00;62.50;;;;;;5086694;28;20092;-49
2022/06/16 04:19:17;;;;;;;11.18;7.20;;;22.10;62.40;;;;;;5091359;28;20028;-52
2022/06/16 04:21:44;;;;;;;8.80;7.43;;;22.00;62.40;;;;;;5088208;28;20039;-51
2022/06/16 04:24:11;;;;;;;12.93;6.75;;;22.00;62.40;;;;;;5087819;28;20362;-52
2022/06/16 04:26:38;;;;;;;9.95;7.40;;;22.10;62.40;;;;;;5076262;28;20046;-51
2022/06/16 04:29:05;;;;;;;9.65;7.00;;;22.00;62.50;;;;;;5085193;28;20427;-54
2022/06/16 04:31:32;;;;;;;14.55;7.45;;;22.00;62.70;;;;;;5083431;28;20051;-50
2022/06/16 04:33:57;;;;;;;14.95;7.10;;;22.00;62.70;;;;;;5080728;28;20465;-49
2022/06/16 04:36:24;;;;;;;8.80;6.57;;;22.10;62.70;;;;;;5088670;28;20054;-54
2022/06/16 04:38:49;;;;;;;11.52;7.38;;;22.20;62.40;;;;;;5082204;28;20169;-50
2022/06/16 04:41:16;;;;;;;10.55;6.88;;;22.30;62.20;;;;;;5092768;28;20028;-48
2022/06/16 04:43:42;;;;;;;9.38;7.10;;;22.20;62.20;;;;;;5089657;28;20542;-47
2022/06/16 04:46:08;;;;;;;17.50;7.50;;;22.30;62.20;;;;;;5080721;28;20044;-52
2022/06/16 04:48:34;;;;;;;11.80;6.78;;;22.30;62.10;;;;;;5071995;28;20021;-52
2022/06/16 04:51:00;;;;;;;11.27;7.22;;;22.30;62.10;;;;;;5072343;28;20046;-50
2022/06/16 04:53:26;;;;;;;10.10;7.20;;;22.40;61.80;;;;;;5072438;28;20473;-49
2022/06/16 04:55:53;;;;;;;11.20;6.93;;;22.50;61.80;;;;;;5071967;28;20119;-53
2022/06/16 04:58:19;;;;;;;12.93;6.65;;;22.50;61.60;;;;;;5054580;28;20043;-53
2022/06/16 05:00:47;;;;;;;11.77;6.68;;;22.50;61.60;;;;;;5071791;28;20029;-53
2022/06/16 05:03:13;;;;;;;9.95;6.35;;;22.40;61.70;;;;;;5071837;28;20068;-55
2022/06/16 05:05:38;;;;;;;8.32;6.25;;;22.50;61.60;;;;;;5071906;28;20165;-51
2022/06/16 05:08:04;;;;;;;9.35;6.60;;;22.60;61.30;;;;;;5072522;28;20502;-54
2022/06/16 05:10:30;;;;;;;9.48;6.50;;;22.60;61.30;;;;;;5072047;28;20413;-51
2022/06/16 05:12:56;;;;;;;11.63;6.13;;;22.60;61.20;;;;;;5051024;28;20031;-57
2022/06/16 05:15:21;;;;;;;12.82;6.30;;;22.60;61.30;;;;;;5062609;28;20052;-54
2022/06/16 05:17:47;;;;;;;10.60;6.50;;;22.70;61.00;;;;;;5063493;28;20040;-52
2022/06/16 05:20:13;;;;;;;9.00;6.50;;;22.70;60.80;;;;;;5034146;28;20040;-53
2022/06/16 05:22:38;;;;;;;11.32;6.63;;;22.90;60.40;;;;;;5051177;28;20506;-49
2022/06/16 05:25:05;;;;;;;10.50;6.68;;;23.00;60.50;;;;;;5067163;28;20382;-51
2022/06/16 05:27:30;;;;;;;14.20;6.50;;;23.00;60.20;;;;;;5066533;28;20051;-50
2022/06/16 05:29:56;;;;;;;11.75;6.30;;;23.10;59.90;;;;;;5070842;28;20455;-48
2022/06/16 05:32:22;;;;;;;17.30;6.50;;;23.10;59.70;;;;;;5057884;28;20504;-48
2022/06/16 05:34:47;;;;;;;11.43;6.00;;;23.10;59.80;;;;;;5070661;28;20457;-54
2022/06/16 05:37:13;;;;;;;11.57;6.20;;;23.10;59.80;;;;;;5060517;28;20568;-51
2022/06/16 05:39:40;;;;;;;11.13;6.13;;;23.20;59.70;;;;;;5071737;28;20499;-50
2022/06/16 05:42:08;;;;;;;10.95;5.93;;;23.20;59.40;;;;;;5071621;28;20036;-50
2022/06/16 05:44:33;;;;;;;10.80;5.55;;;23.10;59.80;;;;;;5071928;28;20033;-51
2022/06/16 05:47:00;;;;;;;16.13;6.10;;;23.30;59.10;;;;;;5071716;28;20200;-53
2022/06/16 05:49:26;;;;;;;9.43;5.60;;;23.30;59.00;;;;;;5071871;28;20025;-47
2022/06/16 05:51:51;;;;;;;8.95;5.47;;;23.50;58.30;;;;;;5071615;28;20428;-49
2022/06/16 05:54:17;;;;;;;11.77;5.35;;;23.40;58.50;;;;;;5071622;28;20050;-50
2022/06/16 05:56:42;;;;;;;8.27;5.25;;;23.60;58.00;;;;;;5071559;28;20081;-50
2022/06/16 05:59:08;;;;;;;12.23;6.15;;;23.50;58.20;;;;;;5053879;28;20125;-48
2022/06/16 06:01:34;;;;;;;10.25;5.60;;;23.60;58.20;;;;;;5071885;28;20119;-48
2022/06/16 06:03:59;;;;;;;9.52;5.25;;;23.70;57.70;;;;;;5071395;28;20112;-48
2022/06/16 06:06:25;;;;;;;7.93;4.80;;;23.80;57.40;;;;;;5071564;28;20033;-50
2022/06/16 06:17:11;;;;;;;8.95;5.38;;;23.60;57.70;;;;;;5075056;28;20071;-48
2022/06/16 06:19:37;;;;;;;8.38;5.53;;;23.70;57.70;;;;;;5073781;28;20112;-51
2022/06/16 06:22:14;;;;;;;12.35;5.13;;;24.00;57.00;;;;;;5048114;28;20141;-47
2022/06/16 06:24:45;;;;;;;11.55;4.70;;;24.10;56.30;;;;;;5062701;28;20119;-50
2022/06/16 06:27:18;;;;;;;13.20;5.45;;;24.20;56.00;;;;;;5046917;28;20025;-47
2022/06/16 06:29:45;;;;;;;9.48;4.72;;;24.20;55.90;;;;;;5072763;28;20128;-50
2022/06/16 06:32:12;;;;;;;9.20;5.60;;;24.40;55.40;;;;;;5075081;28;20016;-47
2022/06/16 06:34:38;;;;;;;8.88;5.13;;;24.40;55.40;;;;;;5074849;28;20035;-50
2022/06/16 06:37:05;;;;;;;9.30;5.07;;;24.50;55.10;;;;;;5069349;28;20025;-49
2022/06/16 06:39:31;;;;;;;10.68;5.53;;;24.60;55.10;;;;;;5072151;28;20021;-48
2022/06/16 06:41:56;;;;;;;10.07;5.38;;;24.70;55.00;;;;;;5074290;28;20027;-49
2022/06/16 06:44:22;;;;;;;7.38;4.80;;;24.80;54.50;;;;;;5061631;28;20462;-52
2022/06/16 06:46:48;;;;;;;10.07;5.40;;;25.00;54.20;;;;;;5064972;28;20068;-51
2022/06/16 06:49:14;;;;;;;8.73;5.45;;;25.20;53.90;;;;;;5075353;28;20028;-50
2022/06/16 06:51:39;;;;;;;9.32;5.35;;;26.20;54.40;;;;;;5075002;28;20054;-47
2022/06/16 06:54:05;;;;;;;7.60;5.25;;;28.90;48.80;;;;;;5073530;28;20021;-54
2022/06/16 06:56:32;;;;;;;9.80;4.90;;;32.60;42.60;;;;;;5074750;28;20063;-52
2022/06/16 06:59:02;;;;;;;12.25;5.10;;;35.80;37.10;;;;;;5072688;28;20021;-52
2022/06/16 07:01:28;;;;;;;9.18;5.30;;;38.00;33.70;;;;;;5059873;28;20379;-51
2022/06/16 07:03:54;;;;;;;7.32;4.40;;;39.60;31.70;;;;;;5056010;28;20071;-48
2022/06/16 07:06:20;;;;;;;8.20;4.57;;;40.40;30.40;;;;;;5074484;28;20035;-52
2022/06/16 07:08:46;;;;;;;5.68;4.03;;;41.20;29.40;;;;;;5069413;28;20068;-51
2022/06/16 07:11:12;;;;;;;6.75;4.38;;;41.80;28.80;;;;;;5060988;28;20033;-52
2022/06/16 07:13:38;;;;;;;8.65;4.35;;;42.70;28.40;;;;;;5064721;28;20040;-50
2022/06/16 07:16:04;;;;;;;9.25;4.57;;;44.10;27.70;;;;;;5073441;28;20510;-53
2022/06/16 07:18:30;;;;;;;8.00;4.40;;;44.70;26.60;;;;;;5056268;28;20028;-51
2022/06/16 07:20:55;;;;;;;6.72;4.43;;;44.30;26.60;;;;;;5074376;28;20381;-47
2022/06/16 07:23:21;;;;;;;6.15;3.95;;;44.10;26.70;;;;;;5072665;28;20037;-48
2022/06/16 07:25:49;;;;;;;8.57;4.50;;;44.50;26.70;;;;;;5074616;28;20028;-52
2022/06/16 07:28:15;;;;;;;9.73;4.32;;;45.60;25.90;;;;;;5061158;28;20367;-51
2022/06/16 07:30:41;;;;;;;6.85;4.57;;;45.90;25.70;;;;;;5063953;28;20031;-50
2022/06/16 07:33:07;;;;;;;9.20;4.47;;;46.20;25.50;;;;;;5063539;28;20475;-50
2022/06/16 07:35:33;;;;;;;11.55;4.50;;;46.00;25.40;;;;;;5062295;28;20078;-51
2022/06/16 07:37:59;;;;;;;8.13;3.90;;;45.50;25.70;;;;;;5062866;28;20029;-53
2022/06/16 07:40:25;;;;;;;8.40;4.53;;;45.70;25.70;;;;;;5045296;28;20116;-50
2022/06/16 07:42:56;;;;;;;7.75;4.30;;;46.10;25.50;;;;;;5062963;28;20097;-53
2022/06/16 07:45:23;;;;;;;6.30;4.30;;;46.20;25.30;;;;;;5065244;28;20741;-49
2022/06/16 07:47:52;;;;;;;5.68;4.15;;;46.20;25.50;;;;;;5062004;28;20055;-51
2022/06/16 07:50:19;;;;;;;11.13;4.78;;;46.50;25.10;;;;;;5063126;28;20033;-49
2022/06/16 07:52:45;;;;;;;9.57;4.82;;;45.40;25.50;;;;;;5044843;28;20042;-51
2022/06/16 07:55:12;;;;;;;7.10;4.40;;;44.70;25.60;;;;;;5063063;28;20028;-49
2022/06/16 07:57:44;;;;;;;9.88;4.30;;;45.10;25.70;;;;;;5063803;28;20111;-48
2022/06/16 08:00:13;;;;;;;8.95;4.07;;;45.20;25.70;;;;;;5064726;28;20074;-52
2022/06/16 08:02:39;;;;;;;8.57;4.53;;;45.30;25.60;;;;;;5046196;28;20040;-49
2022/06/16 08:05:06;;;;;;;6.47;3.95;;;44.90;25.90;;;;;;5062377;28;20025;-47
2022/06/16 08:07:32;;;;;;;7.43;4.40;;;45.10;25.50;;;;;;5040086;28;20024;-52
2022/06/16 08:09:58;;;;;;;8.85;4.72;;;43.70;26.30;;;;;;5060730;28;20021;-51
2022/06/16 08:12:24;;;;;;;6.65;3.92;;;44.00;26.30;;;;;;5064663;28;20021;-48
2022/06/16 08:14:50;;;;;;;5.32;3.90;;;44.90;26.00;;;;;;5061082;28;20021;-58
2022/06/16 08:17:24;;;;;;;9.60;4.70;;;45.30;25.70;;;;;;5048807;28;20032;-53
2022/06/16 08:19:51;;;;;;;9.63;4.05;;;45.60;25.70;;;;;;5062730;28;20033;-59
2022/06/16 08:22:19;;;;;;;6.20;3.70;;;45.50;25.60;;;;;;5061284;28;20025;-53
2022/06/16 08:24:47;;;;;;;9.48;4.40;;;45.00;25.80;;;;;;5061057;28;20028;-49
2022/06/16 08:27:14;;;;;;;9.63;4.72;;;45.80;25.50;;;;;;5048403;28;20037;-50
2022/06/16 08:29:43;;;;;;;6.63;3.75;;;46.10;25.30;;;;;;5060909;28;20039;-49
2022/06/16 08:32:10;;;;;;;9.52;4.05;;;45.90;25.50;;;;;;5044528;28;20470;-49
2022/06/16 08:34:37;;;;;;;6.28;3.60;;;46.20;25.50;;;;;;5064036;28;20044;-53
2022/06/16 08:37:03;;;;;;;6.05;3.80;;;46.10;25.50;;;;;;5041780;28;20039;-50
2022/06/16 08:39:30;;;;;;;8.57;3.70;;;45.10;25.80;;;;;;5042561;28;20102;-48
2022/06/16 08:42:10;;;;;;;5.85;3.70;;;44.60;25.90;;;;;;5043868;28;20411;-55
2022/06/16 08:44:51;;;;;;;10.05;3.95;;;45.30;25.90;;;;;;5061614;28;20039;-53
2022/06/16 08:47:26;;;;;;;7.38;4.00;;;45.70;25.90;;;;;;5064314;28;20094;-57
2022/06/16 08:50:09;;;;;;;6.18;3.88;;;45.60;25.80;;;;;;5052312;28;20016;-58
2022/06/16 08:52:50;;;;;;;6.22;3.75;;;45.20;25.70;;;;;;5040726;28;20044;-54
2022/06/16 08:55:30;;;;;;;10.85;4.10;;;45.30;25.90;;;;;;5064671;28;20478;-54
2022/06/16 08:58:29;;;;;;;7.05;3.92;;;45.20;26.00;;;;;;5060648;28;20016;-58
2022/06/16 09:01:02;;;;;;;8.32;4.22;;;45.40;26.00;;;;;;5042668;28;20024;-57
2022/06/16 09:03:42;;;;;;;9.10;4.00;;;46.60;25.60;;;;;;5045241;28;20481;-52
2022/06/16 09:06:43;;;;;;;9.00;3.88;;;45.50;25.50;;;;;;5040960;28;20025;-56
2022/06/16 09:12:41;;;;;;;6.97;3.85;;;47.20;25.60;;;;;;5064474;28;20109;-52
2022/06/16 09:15:20;;;;;;;6.72;3.58;;;45.80;25.10;;;;;;5044487;28;20062;-54
2022/06/16 09:18:25;;;;;;;7.22;3.53;;;46.70;25.00;;;;;;5043748;28;20496;-51
2022/06/16 09:21:13;;;;;;;8.25;3.08;;;45.10;25.20;;;;;;5042724;28;20068;-51
2022/06/16 09:24:07;;;;;;;7.10;3.38;;;43.00;26.40;;;;;;5056057;28;20033;-52
2022/06/16 09:26:54;;;;;;;7.97;3.45;;;40.00;28.50;;;;;;5062740;28;20021;-54
2022/06/16 09:29:28;;;;;;;7.63;3.50;;;38.00;30.00;;;;;;5041809;28;20052;-50
2022/06/16 09:32:01;;;;;;;4.88;3.30;;;36.80;31.50;;;;;;5059658;28;20099;-52
2022/06/16 09:34:33;;;;;;;;;;;36.30;32.20;;;;;;5056787;28;20060;-54
2022/06/16 09:37:11;;;;;;;8.00;3.97;;;35.30;33.30;;;;;;5064408;28;19912;-55
2022/06/16 09:39:42;;;;;;;9.48;3.95;;;34.40;35.10;;;;;;5043634;28;20079;-53
2022/06/16 09:42:32;;;;;;;6.38;3.75;;;33.10;36.90;;;;;;5046508;28;20492;-53
2022/06/16 09:45:10;;;;;;;10.70;4.70;;;32.10;38.50;;;;;;5063524;28;20087;-56
2022/06/16 09:48:10;;;;;;;10.98;4.03;;;31.90;39.30;;;;;;5059178;28;20021;-53
2022/06/16 09:51:14;;;;;;;6.35;3.53;;;31.10;40.80;;;;;;5057439;28;20021;-53
2022/06/16 09:54:03;;;;;;;;;;;30.70;41.70;;;;;;4980108;28;20403;-51
2022/06/16 09:56:34;;;;;;;7.45;4.07;;;30.80;41.80;;;;;;4983261;28;19914;-53
2022/06/16 09:59:08;;;;;;;8.90;4.40;;;30.10;43.00;;;;;;4981065;28;20034;-55
2022/06/16 10:01:57;;;;;;;7.60;3.60;;;29.80;43.80;;;;;;4983540;28;20030;-53
2022/06/16 10:04:22;;;;;;;7.53;3.85;;;29.30;44.40;;;;;;4973982;28;20046;-51
2022/06/16 10:07:16;;;;;;;8.05;3.95;;;29.30;44.50;;;;;;4979729;28;20053;-51
2022/06/16 10:09:45;;;;;;;7.70;3.83;;;29.70;44.40;;;;;;4981258;28;20039;-52
2022/06/16 10:12:26;;;;;;;7.40;3.67;;;29.90;43.00;;;;;;4983934;28;20848;-48
2022/06/16 10:15:04;;;;;;;7.03;3.72;;;29.60;43.70;;;;;;4983026;28;20391;-53
2022/06/16 10:17:31;;;;;;;7.72;3.55;;;29.20;45.30;;;;;;4959780;28;20500;-54
2022/06/16 10:19:58;;;;;;;9.38;3.72;;;29.30;44.70;;;;;;4979265;28;20030;-59
2022/06/16 10:22:31;;;;;;;6.40;4.05;;;29.70;44.10;;;;;;4981835;28;20480;-54
2022/06/16 10:25:01;;;;;;;;;;;29.50;44.50;;;;;;5042494;28;20064;-53
2022/06/16 10:27:38;;;;;;;8.38;3.97;;;29.60;44.20;;;;;;5061560;28;19905;-51
2022/06/16 10:30:07;;;;;;;6.55;4.00;;;29.30;45.00;;;;;;5062886;28;20465;-51
2022/06/16 10:32:38;;;;;;;6.82;4.00;;;29.00;45.10;;;;;;5071538;28;20429;-49
2022/06/16 10:35:06;;;;;;;9.98;3.63;;;29.00;45.50;;;;;;5065576;28;20075;-51
2022/06/16 10:37:33;;;;;;;6.68;3.90;;;29.20;44.90;;;;;;5059512;28;20110;-50
2022/06/16 10:40:06;;;;;;;5.40;3.65;;;29.50;44.10;;;;;;5044469;28;20028;-56
2022/06/16 10:42:50;;;;;;;6.97;3.90;;;29.50;44.20;;;;;;5048185;28;20027;-51
2022/06/16 10:45:25;;;;;;;6.63;3.63;;;29.70;44.50;;;;;;5061124;28;20044;-48
2022/06/16 10:48:01;;;;;;;5.38;3.65;;;30.00;43.90;;;;;;5059261;28;20112;-50
2022/06/16 10:50:43;;;;;;;7.70;3.85;;;29.80;44.20;;;;;;5059763;28;20427;-50
2022/06/16 10:53:26;;;;;;;9.57;4.05;;;30.00;43.50;;;;;;5058718;28;20036;-53
2022/06/16 10:56:01;;;;;;;9.77;4.32;;;29.90;43.50;;;;;;5043252;28;20029;-51
2022/06/16 10:58:42;;;;;;;9.57;3.58;;;30.00;43.40;;;;;;5044907;28;20101;-50
2022/06/16 11:01:23;;;;;;;6.03;3.60;;;30.30;42.00;;;;;;5045837;28;20042;-49
2022/06/16 11:03:52;;;;;;;5.95;3.47;;;30.30;42.20;;;;;;5056526;28;20025;-50
2022/06/16 11:06:39;;;;;;;5.80;3.33;;;30.10;42.80;;;;;;5036708;28;20029;-53
2022/06/16 11:09:07;;;;;;;7.90;4.03;;;30.40;42.50;;;;;;5055683;28;20426;-51
2022/06/16 11:11:52;;;;;;;8.32;3.47;;;30.30;42.50;;;;;;5045873;28;20123;-50
2022/06/16 11:14:28;;;;;;;8.48;3.80;;;30.60;41.90;;;;;;5066481;28;20033;-51
2022/06/16 11:16:56;;;;;;;5.68;3.33;;;30.30;42.40;;;;;;5067499;28;20094;-49
2022/06/16 11:19:58;;;;;;;12.07;3.92;;;30.10;42.50;;;;;;5051513;28;20309;-49
2022/06/16 11:22:32;;;;;;;5.53;3.78;;;30.30;42.30;;;;;;5029655;28;20132;-52
2022/06/16 11:25:21;;;;;;;7.88;3.85;;;30.80;41.70;;;;;;5049276;28;20546;-51
2022/06/16 11:27:57;;;;;;;7.13;3.42;;;31.00;41.20;;;;;;5052488;28;20036;-52
2022/06/16 11:30:47;;;;;;;10.57;3.80;;;31.40;40.60;;;;;;5047683;28;20068;-52
2022/06/16 11:36:37;;;;;;;7.18;3.50;;;30.70;41.60;;;;;;5048468;28;20450;-53
2022/06/16 11:39:16;;;;;;;8.65;3.35;;;30.70;40.80;;;;;;5058649;28;20033;-50
2022/06/16 11:41:46;;;;;;;12.55;3.30;;;30.40;41.30;;;;;;5070669;28;20021;-51
2022/06/16 11:44:18;;;;;;;5.60;3.35;;;30.50;41.10;;;;;;5059964;28;20035;-51
2022/06/16 11:47:04;;;;;;;8.70;3.20;;;30.40;41.70;;;;;;5021591;28;1193565;-52
2022/06/16 11:49:30;;;;;;;9.68;3.35;;;30.20;41.70;;;;;;5047679;28;20029;-48
2022/06/16 11:52:06;;;;;;;6.72;3.40;;;29.80;42.50;;;;;;5040549;28;20430;-50
2022/06/16 11:54:47;;;;;;;7.63;3.42;;;29.90;42.00;;;;;;5062032;28;20060;-52
2022/06/16 11:57:37;;;;;;;9.73;3.47;;;30.30;41.80;;;;;;5055285;28;20024;-50
2022/06/16 12:00:25;;;;;;;9.60;3.60;;;29.80;42.80;;;;;;5030856;28;20419;-59
2022/06/16 12:03:17;;;;;;;6.95;3.63;;;30.20;41.00;;;;;;5043228;28;20067;-48
2022/06/16 12:05:54;;;;;;;6.38;3.83;;;30.50;40.90;;;;;;4970783;28;20031;-48
2022/06/16 12:08:45;;;;;;;7.20;3.35;;;30.70;40.90;;;;;;4982814;28;20413;-48
2022/06/16 12:11:41;;;;;;;7.88;3.75;;;30.80;40.70;;;;;;4967657;28;20034;-57
2022/06/16 12:14:38;;;;;;;10.05;3.97;;;30.80;40.70;;;;;;4987555;28;20454;-55
2022/06/16 12:17:29;;;;;;;8.85;2.92;;;30.80;40.90;;;;;;4961955;28;20557;-56
2022/06/16 12:20:11;;;;;;;6.63;3.53;;;30.70;40.80;;;;;;4981944;28;20084;-57
2022/06/16 12:22:55;;;;;;;12.43;4.28;;;30.60;41.20;;;;;;4967831;28;20038;-51
2022/06/16 12:25:30;;;;;;;;;;;30.60;40.90;;;;;;4969957;28;20026;-53
2022/06/16 12:28:45;;;;;;;7.15;3.97;;;30.70;41.10;;;;;;4974683;28;19945;-48
2022/06/16 12:31:26;;;;;;;10.45;3.50;;;30.80;40.20;;;;;;4963748;28;20492;-53
2022/06/16 12:34:00;;;;;;;11.20;3.38;;;30.80;40.60;;;;;;4954910;28;20089;-53
2022/06/16 12:36:27;;;;;;;;;;;30.60;40.40;;;;;;4951959;28;20078;-47
2022/06/16 12:39:13;;;;;;;12.35;3.75;;;30.90;40.30;;;;;;4961337;28;20047;-54
2022/06/16 12:41:46;;;;;;;6.50;2.97;;;31.00;40.00;;;;;;4957822;28;20042;-57
2022/06/16 12:44:32;;;;;;;7.88;4.15;;;31.00;40.10;;;;;;4956182;28;20026;-55
2022/06/16 12:47:01;;;;;;;8.75;3.47;;;31.10;40.30;;;;;;4980794;28;20046;-51
2022/06/16 12:49:35;;;;;;;7.85;3.40;;;30.80;40.60;;;;;;4984261;28;20081;-51
2022/06/16 12:52:14;;;;;;;18.33;4.10;;;30.70;40.80;;;;;;4966789;28;20035;-54
2022/06/16 12:54:48;;;;;;;6.40;3.28;;;30.50;40.70;;;;;;4971755;28;20545;-51
2022/06/16 12:57:18;;;;;;;6.75;3.42;;;30.80;40.30;;;;;;4964832;28;20039;-50
2022/06/16 13:00:00;;;;;;;5.65;3.22;;;31.00;40.10;;;;;;4957903;28;20073;-53
2022/06/16 13:02:39;;;;;;;7.47;3.28;;;31.70;37.70;;;;;;5036953;28;20155;-54
2022/06/16 13:05:10;;;;;;;6.32;3.63;;;32.00;37.70;;;;;;5018983;28;20053;-48
2022/06/16 13:07:41;;;;;;;6.90;3.45;;;32.10;37.70;;;;;;5035730;28;20517;-53
2022/06/16 13:10:09;;;;;;;8.70;3.55;;;31.90;38.30;;;;;;5034248;28;20098;-51
2022/06/16 13:12:43;;;;;;;8.27;3.50;;;32.30;37.70;;;;;;5048590;28;20025;-54
2022/06/16 13:15:38;;;;;;;7.82;3.28;;;32.20;36.70;;;;;;5043834;28;20386;-54
2022/06/16 13:18:20;;;;;;;8.50;2.95;;;32.00;38.00;;;;;;5058497;28;20072;-56
2022/06/16 13:20:53;;;;;;;7.00;3.30;;;31.80;37.40;;;;;;5071718;28;20054;-52
2022/06/16 13:23:32;;;;;;;4.28;3.15;;;31.90;37.90;;;;;;5053511;28;20017;-48
2022/06/16 13:26:26;;;;;;;7.20;3.38;;;32.00;37.70;;;;;;5067144;28;20025;-49
2022/06/16 13:29:09;;;;;;;9.05;3.50;;;31.90;38.10;;;;;;5067634;28;20038;-50
2022/06/16 13:31:55;;;;;;;8.07;3.58;;;31.70;38.50;;;;;;5043358;28;20064;-51
2022/06/16 13:34:42;;;;;;;8.52;3.38;;;31.40;38.30;;;;;;5056207;28;20050;-56